createdAt,value
2019-03-20T00:00:40.198Z,1.30
2019-03-20T00:03:08.707Z,1.30
2019-03-20T00:05:37.151Z,1.20
2019-03-20T00:08:05.773Z,1.20
2019-03-20T00:10:34.289Z,1.10
2019-03-20T00:13:02.738Z,1.10
2019-03-20T00:15:31.566Z,1.10
2019-03-20T00:18:00.015Z,1.10
2019-03-20T00:20:28.533Z,0.90
2019-03-20T00:22:57.082Z,0.80
2019-03-20T00:25:25.528Z,0.90
2019-03-20T00:27:54.043Z,1.10
2019-03-20T00:30:22.591Z,1.10
2019-03-20T00:32:51.028Z,1.00
2019-03-20T00:35:19.474Z,0.70
2019-03-20T00:37:48.114Z,0.70
2019-03-20T00:40:17.304Z,0.60
2019-03-20T00:42:46.179Z,0.80
2019-03-20T00:45:17.388Z,0.80
2019-03-20T00:47:45.994Z,0.80
2019-03-20T00:50:15.876Z,0.70
2019-03-20T00:52:44.677Z,0.60
2019-03-20T00:55:16.979Z,0.50
2019-03-20T00:57:45.790Z,0.40
2019-03-20T01:00:19.978Z,0.30
2019-03-20T01:02:48.495Z,0.20
2019-03-20T01:05:17.378Z,0.20
2019-03-20T01:07:46.217Z,0.10
2019-03-20T01:10:19.615Z,0.20
2019-03-20T01:12:48.418Z,0.30
2019-03-20T01:15:17.043Z,0.20
2019-03-20T01:17:45.995Z,0.10
2019-03-20T01:20:24.840Z,0.10
2019-03-20T01:22:53.618Z,0.10
2019-03-20T01:25:22.159Z,0.00
2019-03-20T01:27:50.710Z,0.00
2019-03-20T01:30:34.963Z,-0.10
2019-03-20T01:33:05.802Z,-0.10
2019-03-20T01:35:34.320Z,-0.20
2019-03-20T01:38:02.921Z,-0.10
2019-03-20T01:40:31.463Z,0.00
2019-03-20T01:42:59.981Z,0.00
2019-03-20T01:45:28.561Z,0.00
2019-03-20T01:47:57.170Z,0.10
2019-03-20T01:50:25.682Z,0.00
2019-03-20T01:52:54.128Z,0.00
2019-03-20T01:55:22.806Z,0.10
2019-03-20T01:57:51.386Z,0.00
2019-03-20T02:00:20.890Z,0.00
2019-03-20T02:02:49.711Z,-0.10
2019-03-20T02:05:18.296Z,-0.10
2019-03-20T02:07:46.741Z,-0.10
2019-03-20T02:10:16.421Z,-0.10
2019-03-20T02:12:44.880Z,-0.20
2019-03-20T02:15:17.583Z,0.00
2019-03-20T02:17:46.059Z,0.10
2019-03-20T02:20:17.105Z,0.10
2019-03-20T02:22:45.626Z,-0.10
2019-03-20T02:25:14.650Z,-0.20
2019-03-20T02:27:43.103Z,-0.20
2019-03-20T02:30:21.007Z,-0.30
2019-03-20T02:32:49.540Z,-0.20
2019-03-20T02:35:18.099Z,-0.30
2019-03-20T02:37:50.066Z,-0.40
2019-03-20T02:40:18.592Z,-0.40
2019-03-20T02:42:47.219Z,-0.50
2019-03-20T02:45:16.612Z,-0.60
2019-03-20T02:47:45.239Z,-0.60
2019-03-20T02:50:15.145Z,-0.70
2019-03-20T02:52:43.600Z,-0.70
2019-03-20T02:55:12.914Z,-0.70
2019-03-20T02:57:41.488Z,-0.60
2019-03-20T03:00:17.845Z,-0.50
2019-03-20T03:02:46.442Z,-0.60
2019-03-20T03:05:16.209Z,-0.60
2019-03-20T03:07:44.875Z,-0.70
2019-03-20T03:10:17.236Z,-0.80
2019-03-20T03:12:46.231Z,-0.80
2019-03-20T03:15:15.947Z,-0.80
2019-03-20T03:17:44.874Z,-0.80
2019-03-20T03:20:16.676Z,-0.90
2019-03-20T03:22:45.364Z,-0.90
2019-03-20T03:25:14.952Z,-0.90
2019-03-20T03:27:43.473Z,-0.90
2019-03-20T03:30:14.406Z,-0.90
2019-03-20T03:32:43.165Z,-0.70
2019-03-20T03:35:17.338Z,-0.60
2019-03-20T03:37:42.546Z,-0.50
2019-03-20T03:40:15.708Z,-0.60
2019-03-20T03:42:44.237Z,-0.60
2019-03-20T03:45:14.204Z,-0.60
2019-03-20T03:47:42.866Z,-0.60
2019-03-20T03:50:12.155Z,-0.50
2019-03-20T03:52:40.650Z,-0.50
2019-03-20T03:55:14.464Z,-0.50
2019-03-20T03:57:43.227Z,-0.40
2019-03-20T04:00:17.738Z,-0.40
2019-03-20T04:02:46.441Z,-0.30
2019-03-20T04:05:15.183Z,-0.20
2019-03-20T04:07:43.646Z,-0.40
2019-03-20T04:10:16.738Z,-0.50
2019-03-20T04:12:45.327Z,-0.40
2019-03-20T04:15:17.444Z,-0.50
2019-03-20T04:17:46.064Z,-0.60
2019-03-20T04:20:19.019Z,-0.60
2019-03-20T04:22:47.767Z,-0.90
2019-03-20T04:25:16.636Z,-0.90
2019-03-20T04:27:45.088Z,-0.90
2019-03-20T04:30:17.500Z,-1.00
2019-03-20T04:32:46.123Z,-0.90
2019-03-20T04:35:15.289Z,-1.00
2019-03-20T04:37:43.960Z,-0.70
2019-03-20T04:40:14.277Z,-0.60
2019-03-20T04:42:42.752Z,-0.60
2019-03-20T04:45:17.748Z,-0.60
2019-03-20T04:47:46.669Z,-0.60
2019-03-20T04:50:16.163Z,-0.50
2019-03-20T04:52:44.687Z,-0.50
2019-03-20T04:55:13.361Z,-0.70
2019-03-20T04:57:41.890Z,-0.80
2019-03-20T05:00:21.340Z,-0.70
2019-03-20T05:02:49.778Z,-0.80
2019-03-20T05:05:18.294Z,-1.00
2019-03-20T05:07:46.889Z,-1.10
2019-03-20T05:10:19.277Z,-1.10
2019-03-20T05:12:47.744Z,-1.10
2019-03-20T05:15:16.214Z,-1.10
2019-03-20T05:17:44.666Z,-1.10
2019-03-20T05:20:18.173Z,-1.10
2019-03-20T05:22:46.662Z,-1.10
2019-03-20T05:25:15.176Z,-1.00
2019-03-20T05:27:43.754Z,-0.80
2019-03-20T05:30:16.145Z,-0.90
2019-03-20T05:32:44.612Z,-1.00
2019-03-20T05:35:13.307Z,-1.10
2019-03-20T05:37:41.989Z,-1.20
2019-03-20T05:40:15.013Z,-1.10
2019-03-20T05:42:43.531Z,-1.10
2019-03-20T05:45:16.322Z,-1.10
2019-03-20T05:47:45.059Z,-0.80
2019-03-20T05:50:14.446Z,-0.80
2019-03-20T05:52:42.971Z,-0.60
2019-03-20T05:55:11.770Z,-0.50
2019-03-20T05:57:40.303Z,-0.60
2019-03-20T06:00:16.058Z,-0.60
2019-03-20T06:02:44.587Z,-0.60
2019-03-20T06:05:13.203Z,-0.50
2019-03-20T06:07:41.758Z,-0.50
2019-03-20T06:10:16.185Z,-0.40
2019-03-20T06:12:44.727Z,-0.30
2019-03-20T06:15:14.239Z,-0.20
2019-03-20T06:17:42.854Z,-0.10
2019-03-20T06:20:12.942Z,-0.10
2019-03-20T06:22:41.499Z,0.00
2019-03-20T06:25:12.628Z,0.00
2019-03-20T06:27:41.290Z,-0.10
2019-03-20T06:30:13.135Z,0.00
2019-03-20T06:32:41.575Z,0.10
2019-03-20T06:35:10.551Z,0.10
2019-03-20T06:37:39.023Z,0.20
2019-03-20T06:40:10.175Z,0.40
2019-03-20T06:42:38.638Z,0.60
2019-03-20T06:45:10.522Z,0.70
2019-03-20T06:47:38.967Z,0.90
2019-03-20T06:50:10.492Z,1.20
2019-03-20T06:52:39.106Z,1.50
2019-03-20T06:55:08.887Z,1.60
2019-03-20T06:57:37.330Z,1.90
2019-03-20T07:00:38.666Z,2.00
2019-03-20T07:03:10.200Z,2.20
2019-03-20T07:05:57.073Z,2.30
2019-03-20T07:08:28.619Z,2.50
2019-03-20T07:11:07.505Z,2.70
2019-03-20T07:13:36.014Z,2.80
2019-03-20T07:16:05.202Z,3.00
2019-03-20T07:18:33.670Z,3.10
2019-03-20T07:21:02.124Z,3.30
2019-03-20T07:23:30.570Z,3.40
2019-03-20T07:25:59.105Z,3.50
2019-03-20T07:28:27.554Z,3.50
2019-03-20T07:30:56.170Z,3.70
2019-03-20T07:33:24.742Z,3.70
2019-03-20T07:35:53.359Z,3.80
2019-03-20T07:38:22.172Z,3.80
2019-03-20T07:40:50.792Z,3.90
2019-03-20T07:43:19.306Z,4.10
2019-03-20T07:45:47.760Z,4.60
2019-03-20T07:48:21.931Z,5.20
2019-03-20T07:50:46.495Z,6.00
2019-03-20T07:53:14.951Z,6.80
2019-03-20T07:55:43.651Z,7.80
2019-03-20T07:58:12.091Z,8.20
2019-03-20T08:00:40.540Z,8.40
2019-03-20T08:03:09.018Z,9.50
2019-03-20T08:05:37.461Z,10.20
2019-03-20T08:08:07.541Z,10.60
2019-03-20T08:10:36.097Z,10.70
2019-03-20T08:13:04.791Z,10.70
2019-03-20T08:15:33.314Z,11.40
2019-03-20T08:18:01.782Z,11.70
2019-03-20T08:20:31.168Z,12.00
2019-03-20T08:22:59.683Z,12.80
2019-03-20T08:25:28.178Z,12.60
2019-03-20T08:27:56.633Z,12.60
2019-03-20T08:30:25.074Z,12.80
2019-03-20T08:32:53.540Z,12.80
2019-03-20T08:35:21.994Z,13.40
2019-03-20T08:37:50.438Z,13.40
2019-03-20T08:40:19.573Z,13.90
2019-03-20T08:42:48.169Z,14.70
2019-03-20T08:45:17.757Z,14.50
2019-03-20T08:47:46.897Z,14.20
2019-03-20T08:50:19.962Z,14.90
2019-03-20T08:52:48.476Z,15.50
2019-03-20T08:55:20.653Z,14.20
2019-03-20T08:57:49.391Z,14.80
2019-03-20T09:00:22.054Z,15.70
2019-03-20T09:02:51.085Z,16.30
2019-03-20T09:05:19.665Z,16.30
2019-03-20T09:07:48.354Z,16.20
2019-03-20T09:10:21.738Z,16.70
2019-03-20T09:12:50.196Z,16.70
2019-03-20T09:15:19.686Z,16.80
2019-03-20T09:17:48.338Z,17.50
2019-03-20T09:20:22.467Z,16.70
2019-03-20T09:22:50.983Z,17.30
2019-03-20T09:25:23.406Z,18.40
2019-03-20T09:27:52.018Z,18.90
2019-03-20T09:30:27.457Z,20.00
2019-03-20T09:32:56.047Z,19.90
2019-03-20T09:35:24.567Z,20.10
2019-03-20T09:37:53.051Z,19.80
2019-03-20T09:40:23.801Z,20.30
2019-03-20T09:42:52.493Z,18.20
2019-03-20T09:45:22.165Z,18.10
2019-03-20T09:47:50.690Z,16.50
2019-03-20T09:50:21.414Z,16.50
2019-03-20T09:52:50.132Z,17.90
2019-03-20T09:55:18.875Z,17.90
2019-03-20T09:57:47.391Z,18.60
2019-03-20T10:00:24.301Z,18.90
2019-03-20T10:02:53.389Z,19.80
2019-03-20T10:05:22.080Z,19.70
2019-03-20T10:07:50.706Z,19.40
2019-03-20T10:10:27.076Z,19.30
2019-03-20T10:12:55.974Z,19.80
2019-03-20T10:15:29.235Z,19.70
2019-03-20T10:17:57.833Z,19.90
2019-03-20T10:20:26.781Z,20.00
2019-03-20T10:22:55.226Z,20.90
2019-03-20T10:25:23.743Z,21.00
2019-03-20T10:27:52.316Z,21.30
2019-03-20T10:30:25.036Z,21.90
2019-03-20T10:32:53.565Z,22.80
2019-03-20T10:35:22.113Z,21.70
2019-03-20T10:37:50.643Z,21.60
2019-03-20T10:40:29.099Z,21.10
2019-03-20T10:42:57.539Z,20.80
2019-03-20T10:45:25.986Z,21.70
2019-03-20T10:47:54.574Z,21.70
2019-03-20T10:50:26.924Z,21.70
2019-03-20T10:52:55.425Z,20.80
2019-03-20T10:55:24.029Z,20.80
2019-03-20T10:57:52.621Z,21.30
2019-03-20T11:00:28.516Z,21.20
2019-03-20T11:02:57.246Z,21.40
2019-03-20T11:05:25.768Z,21.40
2019-03-20T11:07:54.710Z,21.20
2019-03-20T11:10:29.342Z,21.60
2019-03-20T11:12:58.137Z,20.60
2019-03-20T11:15:29.377Z,20.00
2019-03-20T11:17:57.213Z,20.80
2019-03-20T11:20:25.991Z,21.70
2019-03-20T11:22:54.471Z,23.00
2019-03-20T11:25:26.770Z,21.70
2019-03-20T11:27:55.359Z,21.10
2019-03-20T11:30:28.134Z,20.80
2019-03-20T11:32:57.130Z,20.90
2019-03-20T11:35:25.918Z,21.00
2019-03-20T11:37:54.574Z,21.10
2019-03-20T11:40:33.858Z,21.70
2019-03-20T11:43:02.485Z,21.20
2019-03-20T11:45:31.000Z,22.40
2019-03-20T11:47:59.446Z,22.60
2019-03-20T11:50:36.452Z,21.80
2019-03-20T11:53:06.343Z,20.20
2019-03-20T11:55:34.873Z,20.10
2019-03-20T11:58:03.724Z,20.60
2019-03-20T12:00:32.306Z,20.60
2019-03-20T12:03:00.769Z,19.40
2019-03-20T12:05:29.317Z,20.30
2019-03-20T12:07:57.897Z,21.30
2019-03-20T12:10:27.586Z,22.00
2019-03-20T12:12:56.206Z,22.20
2019-03-20T12:15:24.893Z,22.20
2019-03-20T12:17:53.350Z,21.70
2019-03-20T12:20:23.929Z,22.10
2019-03-20T12:22:52.912Z,22.20
2019-03-20T12:25:35.255Z,22.20
2019-03-20T12:28:03.775Z,22.40
2019-03-20T12:30:33.583Z,21.60
2019-03-20T12:33:02.184Z,20.80
2019-03-20T12:35:39.002Z,20.70
2019-03-20T12:38:14.231Z,21.10
2019-03-20T12:40:37.667Z,21.80
2019-03-20T12:43:06.732Z,23.20
2019-03-20T12:45:36.166Z,22.90
2019-03-20T12:48:09.212Z,22.70
2019-03-20T12:50:37.654Z,22.70
2019-03-20T12:53:08.053Z,22.20
2019-03-20T12:55:36.635Z,22.60
2019-03-20T12:58:05.354Z,24.10
2019-03-20T13:00:34.071Z,24.10
2019-03-20T13:03:02.529Z,23.80
2019-03-20T13:05:31.063Z,23.50
2019-03-20T13:08:05.690Z,22.90
2019-03-20T13:10:29.940Z,23.40
2019-03-20T13:12:58.569Z,24.20
2019-03-20T13:15:28.142Z,24.90
2019-03-20T13:17:57.225Z,25.00
2019-03-20T13:20:26.181Z,23.90
2019-03-20T13:23:06.874Z,23.40
2019-03-20T13:25:35.457Z,22.90
2019-03-20T13:28:03.978Z,23.20
2019-03-20T13:30:41.663Z,23.80
2019-03-20T13:33:10.183Z,25.90
2019-03-20T13:35:38.708Z,26.40
2019-03-20T13:38:07.262Z,27.10
2019-03-20T13:40:35.701Z,27.10
2019-03-20T13:43:04.562Z,27.10
2019-03-20T13:45:33.065Z,26.50
2019-03-20T13:48:01.578Z,25.70
2019-03-20T13:50:30.027Z,24.40
2019-03-20T13:52:58.505Z,23.70
2019-03-20T13:55:27.022Z,23.70
2019-03-20T13:57:55.465Z,23.00
2019-03-20T14:00:27.536Z,23.70
2019-03-20T14:02:56.042Z,24.10
2019-03-20T14:05:24.630Z,24.30
2019-03-20T14:07:53.102Z,25.70
2019-03-20T14:10:25.862Z,26.10
2019-03-20T14:12:54.496Z,25.70
2019-03-20T14:15:23.046Z,25.80
2019-03-20T14:17:51.638Z,25.20
2019-03-20T14:20:24.570Z,24.50
2019-03-20T14:22:53.059Z,24.40
2019-03-20T14:25:22.148Z,24.20
2019-03-20T14:27:51.841Z,24.80
2019-03-20T14:30:31.899Z,24.00
2019-03-20T14:33:00.421Z,24.70
2019-03-20T14:35:28.933Z,24.80
2019-03-20T14:37:57.517Z,24.70
2019-03-20T14:40:35.258Z,25.40
2019-03-20T14:42:58.935Z,25.30
2019-03-20T14:45:27.574Z,24.90
2019-03-20T14:47:56.026Z,23.80
2019-03-20T14:50:32.446Z,23.60
2019-03-20T14:53:01.032Z,24.00
2019-03-20T14:55:29.615Z,24.10
2019-03-20T14:57:58.158Z,24.00
2019-03-20T15:00:31.466Z,23.50
2019-03-20T15:02:59.983Z,23.70
2019-03-20T15:05:28.891Z,24.80
2019-03-20T15:07:57.366Z,24.50
2019-03-20T15:10:26.658Z,24.70
2019-03-20T15:12:55.919Z,24.70
2019-03-20T15:15:51.393Z,24.70
2019-03-20T15:18:19.862Z,24.60
2019-03-20T15:20:48.310Z,24.40
2019-03-20T15:23:16.759Z,23.80
2019-03-20T15:25:45.398Z,24.30
2019-03-20T15:28:13.924Z,24.20
2019-03-20T15:30:42.366Z,24.00
2019-03-20T15:33:10.843Z,24.30
2019-03-20T15:35:39.358Z,24.20
2019-03-20T15:38:07.822Z,24.10
2019-03-20T15:40:36.382Z,22.70
2019-03-20T15:43:05.069Z,22.90
2019-03-20T15:45:33.590Z,22.70
2019-03-20T15:48:02.198Z,23.50
2019-03-20T15:50:30.655Z,24.10
2019-03-20T15:52:59.107Z,23.90
2019-03-20T15:55:39.058Z,23.80
2019-03-20T15:58:07.521Z,23.60
2019-03-20T16:00:35.974Z,22.80
2019-03-20T16:03:13.790Z,22.40
2019-03-20T16:05:42.238Z,22.30
2019-03-20T16:08:10.830Z,21.80
2019-03-20T16:10:39.311Z,22.50
2019-03-20T16:13:07.764Z,23.00
2019-03-20T16:15:36.279Z,23.20
2019-03-20T16:18:04.979Z,22.90
2019-03-20T16:20:33.506Z,21.90
2019-03-20T16:23:02.022Z,20.60
2019-03-20T16:25:30.495Z,18.90
2019-03-20T16:27:58.938Z,17.30
2019-03-20T16:30:31.741Z,16.10
2019-03-20T16:33:00.277Z,14.70
2019-03-20T16:35:28.725Z,14.60
2019-03-20T16:37:57.242Z,14.30
2019-03-20T16:40:33.822Z,13.90
2019-03-20T16:43:02.269Z,13.40
2019-03-20T16:45:35.658Z,13.40
2019-03-20T16:48:05.070Z,13.00
2019-03-20T16:50:33.582Z,12.80
2019-03-20T16:53:02.130Z,12.40
2019-03-20T16:55:30.734Z,12.30
2019-03-20T16:57:59.199Z,12.20
2019-03-20T17:00:32.510Z,12.10
2019-03-20T17:03:01.415Z,11.90
2019-03-20T17:05:31.170Z,11.90
2019-03-20T17:07:59.689Z,11.80
2019-03-20T17:10:37.339Z,11.60
2019-03-20T17:13:06.403Z,11.60
2019-03-20T17:15:39.163Z,11.50
2019-03-20T17:18:08.197Z,11.30
2019-03-20T17:20:36.849Z,11.30
2019-03-20T17:23:07.687Z,11.10
2019-03-20T17:25:36.209Z,10.90
2019-03-20T17:28:05.330Z,10.80
2019-03-20T17:30:38.901Z,10.60
2019-03-20T17:33:08.087Z,10.40
2019-03-20T17:35:36.541Z,10.50
2019-03-20T17:38:05.698Z,10.40
2019-03-20T17:40:34.340Z,10.30
2019-03-20T17:43:02.890Z,9.90
2019-03-20T17:45:31.806Z,9.90
2019-03-20T17:48:00.247Z,9.80
2019-03-20T17:50:29.730Z,9.60
2019-03-20T17:52:58.525Z,9.40
2019-03-20T17:55:27.375Z,9.10
2019-03-20T17:57:55.921Z,9.00
2019-03-20T18:00:37.332Z,8.80
2019-03-20T18:03:06.854Z,8.70
2019-03-20T18:05:35.930Z,8.60
2019-03-20T18:08:05.981Z,8.40
2019-03-20T18:10:34.582Z,8.20
2019-03-20T18:13:03.235Z,8.00
2019-03-20T18:15:32.033Z,8.00
2019-03-20T18:18:00.480Z,8.00
2019-03-20T18:20:29.062Z,7.90
2019-03-20T18:22:57.530Z,7.80
2019-03-20T18:25:25.974Z,7.70
2019-03-20T18:27:54.579Z,7.60
2019-03-20T18:30:24.159Z,7.50
2019-03-20T18:32:52.602Z,7.40
2019-03-20T18:35:21.214Z,7.40
2019-03-20T18:37:49.714Z,7.20
2019-03-20T18:40:20.628Z,7.10
2019-03-20T18:42:49.151Z,7.00
2019-03-20T18:45:25.918Z,6.80
2019-03-20T18:47:54.434Z,6.70
2019-03-20T18:50:23.692Z,6.60
2019-03-20T18:52:52.308Z,6.50
2019-03-20T18:55:20.958Z,6.50
2019-03-20T18:57:49.849Z,6.40
2019-03-20T19:00:32.951Z,6.30
2019-03-20T19:03:13.282Z,6.20
2019-03-20T19:06:02.890Z,6.20
2019-03-20T19:08:31.466Z,6.10
2019-03-20T19:11:00.066Z,6.10
2019-03-20T19:13:28.590Z,6.00
2019-03-20T19:15:57.307Z,6.00
2019-03-20T19:18:25.894Z,5.90
2019-03-20T19:20:54.476Z,5.80
2019-03-20T19:23:23.100Z,5.70
2019-03-20T19:25:51.643Z,5.70
2019-03-20T19:28:20.273Z,5.70
2019-03-20T19:30:48.843Z,5.70
2019-03-20T19:33:17.281Z,5.60
2019-03-20T19:35:45.738Z,5.50
2019-03-20T19:38:14.375Z,5.50
2019-03-20T19:40:42.819Z,5.40
2019-03-20T19:43:11.262Z,5.50
2019-03-20T19:45:39.758Z,5.40
2019-03-20T19:48:08.202Z,5.40
2019-03-20T19:50:36.652Z,5.40
2019-03-20T19:53:05.251Z,5.50
2019-03-20T19:55:33.758Z,5.60
2019-03-20T19:58:02.215Z,5.60
2019-03-20T20:00:31.027Z,5.60
2019-03-20T20:02:59.569Z,5.60
2019-03-20T20:05:28.369Z,5.50
2019-03-20T20:07:57.022Z,5.50
2019-03-20T20:10:25.468Z,5.40
2019-03-20T20:12:53.986Z,5.30
2019-03-20T20:15:27.419Z,5.20
2019-03-20T20:17:55.929Z,5.00
2019-03-20T20:20:25.910Z,4.90
2019-03-20T20:22:54.390Z,4.80
2019-03-20T20:25:23.017Z,4.70
2019-03-20T20:27:51.459Z,4.70
2019-03-20T20:30:20.444Z,4.60
2019-03-20T20:32:48.887Z,4.50
2019-03-20T20:35:17.779Z,4.50
2019-03-20T20:37:47.272Z,4.50
2019-03-20T20:40:18.900Z,4.50
2019-03-20T20:42:47.345Z,4.50
2019-03-20T20:45:16.123Z,4.40
2019-03-20T20:47:44.648Z,4.60
2019-03-20T20:50:14.411Z,4.70
2019-03-20T20:52:43.337Z,4.70
2019-03-20T20:55:13.724Z,4.70
2019-03-20T20:57:42.168Z,4.70
2019-03-20T21:00:13.991Z,4.50
2019-03-20T21:02:42.516Z,4.50
2019-03-20T21:05:11.126Z,4.50
2019-03-20T21:07:39.737Z,4.30
2019-03-20T21:10:16.317Z,4.30
2019-03-20T21:15:29.575Z,4.10
2019-03-20T21:18:16.527Z,4.10
2019-03-20T21:20:45.900Z,4.10
2019-03-20T21:23:40.245Z,4.00
2019-03-20T21:26:17.831Z,4.00
2019-03-20T21:29:11.970Z,3.90
2019-03-20T21:31:43.798Z,3.90
2019-03-20T21:34:24.287Z,3.90
2019-03-20T21:37:15.593Z,3.80
2019-03-20T21:39:44.131Z,3.80
2019-03-20T21:42:34.002Z,3.60
2019-03-20T21:45:40.930Z,3.60
2019-03-20T21:48:09.440Z,3.60
2019-03-20T21:50:56.403Z,3.60
2019-03-20T21:53:46.185Z,3.60
2019-03-20T21:56:29.097Z,3.50
2019-03-20T21:59:23.353Z,3.60
2019-03-20T22:02:28.934Z,3.60
2019-03-20T22:04:57.385Z,3.70
2019-03-20T22:07:25.830Z,3.70
2019-03-20T22:10:06.306Z,3.70
2019-03-20T22:12:59.115Z,3.60
2019-03-20T22:15:30.738Z,3.60
2019-03-20T22:18:20.313Z,3.60
2019-03-20T22:21:10.014Z,3.50
2019-03-20T22:23:44.218Z,3.50
2019-03-20T22:26:33.562Z,3.50
2019-03-20T22:29:27.057Z,3.40
2019-03-20T22:32:04.575Z,3.50
2019-03-20T22:34:41.899Z,3.40
2019-03-20T22:37:10.376Z,3.50
2019-03-20T22:40:15.251Z,3.50
2019-03-20T22:42:55.753Z,3.40
2019-03-20T22:46:00.772Z,3.20
2019-03-20T22:48:53.537Z,3.20
2019-03-20T22:51:47.803Z,3.10
2019-03-20T22:54:31.083Z,3.00
2019-03-20T22:57:05.492Z,3.00
2019-03-20T22:59:33.942Z,2.90
2019-03-20T23:02:08.667Z,2.90
2019-03-20T23:04:40.342Z,2.80
2019-03-20T23:07:10.667Z,2.80
2019-03-20T23:09:38.985Z,2.70
2019-03-20T23:12:09.867Z,2.60
2019-03-20T23:14:38.378Z,2.50
2019-03-20T23:17:06.846Z,2.50
2019-03-20T23:19:36.434Z,2.50
2019-03-20T23:22:05.114Z,2.50
2019-03-20T23:24:33.959Z,2.50
2019-03-20T23:27:05.811Z,2.50
2019-03-20T23:29:34.322Z,2.50
2019-03-20T23:32:02.790Z,2.50
2019-03-20T23:34:31.231Z,2.40
2019-03-20T23:36:59.851Z,2.40
2019-03-20T23:39:28.685Z,2.30
2019-03-20T23:41:57.133Z,2.30
2019-03-20T23:44:25.592Z,2.20
2019-03-20T23:46:54.490Z,2.20
2019-03-20T23:49:25.366Z,2.20
2019-03-20T23:51:55.046Z,2.20
2019-03-20T23:54:26.617Z,2.20
2019-03-20T23:56:55.125Z,2.10
2019-03-20T23:59:23.648Z,2.10
